createdAt,value
2017-06-11T00:00:44.720Z,10.23
2017-06-11T00:03:10.976Z,10.17
2017-06-11T00:05:37.993Z,9.67
2017-06-11T00:08:04.431Z,10.10
2017-06-11T00:10:30.660Z,9.60
2017-06-11T00:12:56.932Z,10.70
2017-06-11T00:15:23.969Z,9.47
2017-06-11T00:17:50.249Z,10.37
2017-06-11T00:20:16.515Z,9.60
2017-06-11T00:22:42.812Z,9.57
2017-06-11T00:25:09.092Z,11.97
2017-06-11T00:27:35.376Z,9.57
2017-06-11T00:30:01.660Z,10.23
2017-06-11T00:32:27.946Z,9.70
2017-06-11T00:34:54.196Z,10.17
2017-06-11T00:37:20.457Z,10.17
2017-06-11T00:39:46.730Z,10.40
2017-06-11T00:42:13.008Z,10.27
2017-06-11T00:44:40.053Z,9.73
2017-06-11T00:47:06.312Z,10.57
2017-06-11T00:49:32.551Z,10.43
2017-06-11T00:51:58.832Z,9.30
2017-06-11T00:54:25.076Z,10.17
2017-06-11T00:56:52.113Z,9.60
2017-06-11T00:59:18.372Z,9.80
2017-06-11T01:01:44.645Z,9.70
2017-06-11T01:04:10.924Z,9.67
2017-06-11T01:06:38.109Z,10.20
2017-06-11T01:09:04.369Z,11.47
2017-06-11T01:11:30.635Z,10.43
2017-06-11T01:13:57.659Z,11.13
2017-06-11T01:16:23.938Z,11.30
2017-06-11T01:18:50.208Z,10.40
2017-06-11T01:21:16.731Z,10.90
2017-06-11T01:23:43.014Z,10.60
2017-06-11T01:26:09.241Z,10.03
2017-06-11T01:28:35.576Z,11.00
2017-06-11T01:31:02.597Z,11.33
2017-06-11T01:33:29.638Z,11.03
2017-06-11T01:35:55.980Z,10.03
2017-06-11T01:38:22.994Z,10.20
2017-06-11T01:40:49.269Z,10.37
2017-06-11T01:43:15.757Z,10.67
2017-06-11T01:45:42.016Z,10.50
2017-06-11T01:48:09.019Z,11.90
2017-06-11T01:50:35.556Z,11.33
2017-06-11T01:53:01.833Z,10.20
2017-06-11T01:55:28.120Z,10.83
2017-06-11T01:57:55.277Z,10.10
2017-06-11T02:00:21.549Z,10.93
2017-06-11T02:02:47.933Z,10.20
2017-06-11T02:05:14.450Z,10.40
2017-06-11T02:07:40.721Z,11.23
2017-06-11T02:10:06.980Z,10.77
2017-06-11T02:12:33.468Z,10.87
2017-06-11T02:14:59.743Z,11.87
2017-06-11T02:17:26.776Z,11.33
2017-06-11T02:19:53.890Z,11.03
2017-06-11T02:22:20.164Z,10.80
2017-06-11T02:24:47.140Z,11.13
2017-06-11T02:27:13.396Z,10.90
2017-06-11T02:29:39.657Z,10.13
2017-06-11T02:32:05.932Z,11.40
2017-06-11T02:34:32.400Z,10.37
2017-06-11T02:36:58.672Z,10.80
2017-06-11T02:39:25.686Z,10.50
2017-06-11T02:41:52.184Z,11.20
2017-06-11T02:44:18.468Z,11.13
2017-06-11T02:46:44.714Z,11.70
2017-06-11T02:49:12.025Z,10.73
2017-06-11T02:51:38.280Z,11.57
2017-06-11T02:54:04.563Z,11.00
2017-06-11T02:56:31.125Z,10.60
2017-06-11T02:58:57.437Z,10.63
2017-06-11T03:01:23.691Z,11.17
2017-06-11T03:03:50.216Z,10.20
2017-06-11T03:06:16.516Z,10.20
2017-06-11T03:08:42.863Z,10.90
2017-06-11T03:11:09.403Z,11.27
2017-06-11T03:13:35.673Z,11.00
2017-06-11T03:16:01.966Z,11.10
2017-06-11T03:18:28.472Z,11.17
2017-06-11T03:20:54.756Z,12.87
2017-06-11T03:23:21.796Z,11.40
2017-06-11T03:25:48.875Z,12.30
2017-06-11T03:28:15.184Z,12.77
2017-06-11T03:30:41.453Z,12.80
2017-06-11T03:33:08.344Z,13.17
2017-06-11T03:35:35.380Z,12.63
2017-06-11T03:38:01.665Z,12.73
2017-06-11T03:40:28.081Z,13.07
2017-06-11T03:42:54.389Z,12.93
2017-06-11T03:45:20.680Z,13.53
2017-06-11T03:47:47.758Z,12.17
2017-06-11T03:50:14.795Z,13.67
2017-06-11T03:52:41.084Z,12.97
2017-06-11T03:55:07.371Z,13.47
2017-06-11T03:57:33.678Z,12.07
2017-06-11T04:00:00.673Z,13.00
2017-06-11T04:02:27.001Z,13.40
2017-06-11T04:04:53.317Z,12.40
2017-06-11T04:07:19.666Z,12.70
2017-06-11T04:09:46.196Z,12.50
2017-06-11T04:12:12.460Z,11.50
2017-06-11T04:14:38.717Z,12.80
2017-06-11T04:17:05.037Z,12.43
2017-06-11T04:19:31.310Z,12.90
2017-06-11T04:21:57.627Z,10.33
2017-06-11T04:24:23.942Z,11.43
2017-06-11T04:26:50.219Z,11.20
2017-06-11T04:29:16.537Z,11.03
2017-06-11T04:31:43.059Z,11.20
2017-06-11T04:34:09.379Z,11.63
2017-06-11T04:36:35.708Z,11.47
2017-06-11T04:39:02.003Z,10.70
2017-06-11T04:41:28.365Z,10.43
2017-06-11T04:43:54.621Z,11.17
2017-06-11T04:46:21.668Z,11.20
2017-06-11T04:48:49.193Z,10.53
2017-06-11T04:51:15.479Z,10.17
2017-06-11T04:53:41.797Z,10.83
2017-06-11T04:56:08.080Z,9.60
2017-06-11T04:58:34.399Z,12.83
2017-06-11T05:01:00.721Z,10.13
2017-06-11T05:03:26.973Z,10.87
2017-06-11T05:05:54.230Z,11.50
2017-06-11T05:08:20.503Z,11.30
2017-06-11T05:10:46.781Z,15.10
2017-06-11T05:13:13.830Z,13.27
2017-06-11T05:15:40.342Z,13.43
2017-06-11T05:18:06.588Z,13.67
2017-06-11T05:20:32.878Z,13.50
2017-06-11T05:22:59.196Z,12.40
2017-06-11T05:25:25.529Z,11.80
2017-06-11T05:27:51.787Z,13.00
2017-06-11T05:30:18.308Z,13.23
2017-06-11T05:32:44.599Z,11.63
2017-06-11T05:35:11.560Z,12.63
2017-06-11T05:37:38.092Z,12.83
2017-06-11T05:40:04.381Z,11.90
2017-06-11T05:42:31.317Z,11.50
2017-06-11T05:44:58.553Z,11.63
2017-06-11T05:47:24.820Z,11.73
2017-06-11T05:49:51.086Z,11.43
2017-06-11T05:52:17.620Z,11.00
2017-06-11T05:54:43.943Z,10.93
2017-06-11T05:57:10.208Z,9.00
2017-06-11T05:59:37.228Z,11.83
2017-06-11T06:02:03.490Z,9.77
2017-06-11T06:04:30.492Z,9.17
2017-06-11T06:06:56.992Z,11.27
2017-06-11T06:09:23.272Z,11.00
2017-06-11T06:11:49.584Z,12.90
2017-06-11T06:14:15.903Z,9.97
2017-06-11T06:16:42.188Z,10.00
2017-06-11T06:19:08.472Z,10.90
2017-06-11T06:21:34.999Z,9.13
2017-06-11T06:24:02.057Z,9.27
2017-06-11T06:26:29.089Z,7.43
2017-06-11T06:28:55.456Z,8.50
2017-06-11T06:31:21.737Z,8.33
2017-06-11T06:33:48.061Z,7.43
2017-06-11T06:36:14.584Z,8.17
2017-06-11T06:38:40.856Z,7.10
2017-06-11T06:41:07.872Z,8.00
2017-06-11T06:43:34.192Z,7.50
2017-06-11T06:46:00.485Z,7.10
2017-06-11T06:48:26.776Z,8.83
2017-06-11T06:50:55.008Z,7.90
2017-06-11T06:53:21.272Z,6.87
2017-06-11T06:55:47.549Z,7.60
2017-06-11T06:58:14.028Z,7.17
2017-06-11T07:00:40.321Z,6.47
2017-06-11T07:03:06.663Z,5.63
2017-06-11T07:05:32.986Z,6.67
2017-06-11T07:07:59.264Z,6.53
2017-06-11T07:10:25.543Z,6.00
2017-06-11T07:12:52.077Z,7.23
2017-06-11T07:15:18.367Z,6.07
2017-06-11T07:17:44.652Z,5.70
2017-06-11T07:20:11.164Z,6.00
2017-06-11T07:22:37.420Z,5.53
2017-06-11T07:25:03.701Z,5.80
2017-06-11T07:27:29.991Z,7.17
2017-06-11T07:29:57.055Z,5.43
2017-06-11T07:32:23.340Z,5.93
2017-06-11T07:34:49.828Z,8.43
2017-06-11T07:37:16.072Z,9.90
2017-06-11T07:39:43.332Z,7.47
2017-06-11T07:42:09.888Z,6.00
2017-06-11T07:44:36.168Z,5.23
2017-06-11T07:47:02.452Z,5.43
2017-06-11T07:49:28.774Z,6.00
2017-06-11T07:51:55.046Z,7.00
2017-06-11T07:54:21.303Z,5.63
2017-06-11T07:56:47.608Z,6.43
2017-06-11T07:59:13.972Z,5.63
2017-06-11T08:01:41.031Z,4.73
2017-06-11T08:04:08.356Z,5.47
2017-06-11T08:06:36.263Z,4.30
2017-06-11T08:09:02.633Z,4.57
2017-06-11T08:11:29.943Z,5.73
2017-06-11T08:13:56.237Z,5.33
2017-06-11T08:16:22.557Z,9.20
2017-06-11T08:18:49.086Z,6.50
2017-06-11T08:21:15.470Z,4.47
2017-06-11T08:23:41.769Z,4.23
2017-06-11T08:26:09.076Z,5.00
2017-06-11T08:28:35.352Z,5.17
2017-06-11T08:31:02.387Z,4.87
2017-06-11T08:33:28.712Z,4.70
2017-06-11T08:35:55.035Z,4.33
2017-06-11T08:38:21.312Z,5.47
2017-06-11T08:40:47.795Z,7.83
2017-06-11T08:43:14.127Z,4.17
2017-06-11T08:45:41.192Z,4.17
2017-06-11T08:48:07.788Z,4.93
2017-06-11T08:50:34.108Z,4.17
2017-06-11T08:53:00.392Z,3.73
2017-06-11T08:55:26.777Z,5.63
2017-06-11T08:57:53.059Z,4.77
2017-06-11T09:00:19.332Z,6.50
2017-06-11T09:02:45.853Z,4.50
2017-06-11T09:05:12.146Z,4.43
2017-06-11T09:07:38.413Z,4.07
2017-06-11T09:10:04.717Z,4.50
2017-06-11T09:12:31.067Z,6.40
2017-06-11T09:14:57.348Z,5.50
2017-06-11T09:17:23.930Z,4.10
2017-06-11T09:19:50.231Z,5.50
2017-06-11T09:22:16.524Z,6.13
2017-06-11T09:24:42.956Z,4.57
2017-06-11T09:27:09.913Z,4.83
2017-06-11T09:29:36.213Z,5.53
2017-06-11T09:32:02.727Z,4.73
2017-06-11T09:34:29.017Z,4.87
2017-06-11T09:36:55.312Z,4.57
2017-06-11T09:39:21.908Z,4.90
2017-06-11T09:41:48.164Z,4.43
2017-06-11T09:44:14.430Z,3.83
2017-06-11T09:46:40.896Z,5.80
2017-06-11T09:49:07.207Z,5.93
2017-06-11T09:51:33.965Z,4.00
2017-06-11T09:54:00.508Z,4.30
2017-06-11T09:56:26.796Z,4.57
2017-06-11T09:58:53.083Z,4.30
2017-06-11T10:01:19.569Z,5.10
2017-06-11T10:03:45.841Z,5.23
2017-06-11T10:06:12.868Z,5.70
2017-06-11T10:08:39.378Z,4.27
2017-06-11T10:11:05.658Z,5.17
2017-06-11T10:13:32.687Z,4.50
2017-06-11T10:15:59.757Z,4.07
2017-06-11T10:18:26.061Z,4.20
2017-06-11T10:20:53.098Z,4.00
2017-06-11T10:23:19.639Z,4.07
2017-06-11T10:25:45.934Z,7.00
2017-06-11T10:28:12.216Z,3.77
2017-06-11T10:30:38.664Z,4.73
2017-06-11T10:33:04.964Z,5.53
2017-06-11T10:35:31.236Z,4.67
2017-06-11T10:37:57.539Z,4.03
2017-06-11T10:40:23.828Z,4.40
2017-06-11T10:42:50.344Z,4.83
2017-06-11T10:45:16.667Z,3.90
2017-06-11T10:47:42.956Z,4.23
2017-06-11T10:50:09.249Z,5.93
2017-06-11T10:52:36.360Z,5.03
2017-06-11T10:55:02.659Z,4.03
2017-06-11T10:57:28.928Z,5.33
2017-06-11T10:59:55.209Z,5.20
2017-06-11T11:02:21.544Z,3.43
2017-06-11T11:04:47.852Z,5.60
2017-06-11T11:07:14.985Z,5.77
2017-06-11T11:09:41.316Z,6.20
2017-06-11T11:12:07.696Z,4.90
2017-06-11T11:14:34.018Z,3.83
2017-06-11T11:17:00.319Z,5.13
2017-06-11T11:19:26.826Z,3.60
2017-06-11T11:21:53.124Z,5.93
2017-06-11T11:24:19.420Z,5.40
2017-06-11T11:26:45.748Z,3.93
2017-06-11T11:29:12.054Z,4.50
2017-06-11T11:31:38.551Z,4.33
2017-06-11T11:34:04.840Z,4.83
2017-06-11T11:36:31.611Z,4.00
2017-06-11T11:38:57.892Z,3.80
2017-06-11T11:41:24.180Z,3.63
2017-06-11T11:43:50.620Z,4.20
2017-06-11T11:46:16.902Z,3.90
2017-06-11T11:48:43.203Z,4.30
2017-06-11T11:51:09.479Z,4.10
2017-06-11T11:53:35.795Z,5.33
2017-06-11T11:56:02.157Z,4.20
2017-06-11T11:58:28.445Z,5.57
2017-06-11T12:00:54.755Z,4.80
2017-06-11T12:03:21.048Z,3.73
2017-06-11T12:05:47.345Z,4.40
2017-06-11T12:08:13.875Z,4.53
2017-06-11T12:10:40.925Z,3.80
2017-06-11T12:13:07.210Z,3.27
2017-06-11T12:15:33.518Z,4.47
2017-06-11T12:17:59.855Z,3.43
2017-06-11T12:20:26.443Z,5.00
2017-06-11T12:22:52.739Z,5.83
2017-06-11T12:25:19.014Z,4.43
2017-06-11T12:27:46.051Z,5.50
2017-06-11T12:30:12.356Z,3.43
2017-06-11T12:32:38.887Z,3.30
2017-06-11T12:35:05.147Z,4.10
2017-06-11T12:37:31.441Z,4.40
2017-06-11T12:39:57.729Z,3.10
2017-06-11T12:42:24.020Z,3.10
2017-06-11T12:44:50.318Z,3.43
2017-06-11T12:47:16.601Z,4.70
2017-06-11T12:49:43.604Z,3.60
2017-06-11T12:52:09.901Z,3.20
2017-06-11T12:54:36.175Z,4.63
2017-06-11T12:57:02.676Z,3.63
2017-06-11T12:59:28.994Z,4.53
2017-06-11T13:01:55.257Z,4.27
2017-06-11T13:04:21.552Z,3.50
2017-06-11T13:06:47.832Z,3.47
2017-06-11T13:09:14.322Z,4.43
2017-06-11T13:11:40.628Z,3.40
2017-06-11T13:14:06.914Z,4.80
2017-06-11T13:16:33.308Z,3.27
2017-06-11T13:18:59.559Z,4.40
2017-06-11T13:21:26.363Z,3.20
2017-06-11T13:23:52.669Z,4.00
2017-06-11T13:26:18.951Z,3.60
2017-06-11T13:28:45.989Z,3.30
2017-06-11T13:31:12.283Z,3.50
2017-06-11T13:33:38.556Z,4.57
2017-06-11T13:36:04.856Z,3.40
2017-06-11T13:38:31.196Z,4.10
2017-06-11T13:40:57.483Z,3.07
2017-06-11T13:43:23.947Z,3.87
2017-06-11T13:45:50.270Z,4.63
2017-06-11T13:48:16.615Z,2.90
2017-06-11T13:50:42.908Z,3.60
2017-06-11T13:53:09.160Z,3.47
2017-06-11T13:55:35.667Z,3.43
2017-06-11T13:58:01.974Z,2.67
2017-06-11T14:00:29.317Z,3.63
2017-06-11T14:02:55.696Z,3.33
2017-06-11T14:05:22.692Z,3.70
2017-06-11T14:07:49.741Z,4.37
2017-06-11T14:10:16.044Z,3.30
2017-06-11T14:12:42.324Z,3.20
2017-06-11T14:15:08.623Z,3.00
2017-06-11T14:17:34.918Z,4.43
2017-06-11T14:20:01.224Z,3.30
2017-06-11T14:22:27.533Z,3.50
2017-06-11T14:24:53.838Z,4.20
2017-06-11T14:27:20.204Z,3.37
2017-06-11T14:29:46.532Z,2.70
2017-06-11T14:32:12.793Z,3.27
2017-06-11T14:34:39.840Z,2.63
2017-06-11T14:37:07.154Z,2.80
2017-06-11T14:39:33.438Z,2.90
2017-06-11T14:42:01.262Z,3.50
2017-06-11T14:44:27.547Z,2.90
2017-06-11T14:46:53.820Z,3.47
2017-06-11T14:49:20.438Z,2.30
2017-06-11T14:51:46.731Z,3.17
2017-06-11T14:54:13.004Z,2.90
2017-06-11T14:56:39.317Z,3.33
2017-06-11T14:59:05.596Z,3.07
2017-06-11T15:01:31.939Z,3.37
2017-06-11T15:03:58.301Z,3.03
2017-06-11T15:06:24.600Z,3.47
2017-06-11T15:08:50.956Z,4.97
2017-06-11T15:11:17.260Z,3.43
2017-06-11T15:13:43.739Z,4.57
2017-06-11T15:16:10.007Z,4.27
2017-06-11T15:18:36.332Z,3.47
2017-06-11T15:21:02.700Z,3.80
2017-06-11T15:23:28.995Z,3.30
2017-06-11T15:25:55.284Z,3.93
2017-06-11T15:28:21.600Z,3.40
2017-06-11T15:30:47.881Z,3.57
2017-06-11T15:33:14.205Z,3.20
2017-06-11T15:35:40.503Z,3.93
2017-06-11T15:38:06.976Z,2.87
2017-06-11T15:40:33.292Z,4.63
2017-06-11T15:42:59.586Z,3.73
2017-06-11T15:45:25.866Z,2.97
2017-06-11T15:47:52.197Z,3.23
2017-06-11T15:50:18.591Z,4.03
2017-06-11T15:52:45.422Z,3.53
2017-06-11T15:55:12.523Z,3.70
2017-06-11T15:57:38.824Z,3.63
2017-06-11T16:00:05.128Z,4.00
2017-06-11T16:02:31.800Z,5.53
2017-06-11T16:04:58.095Z,5.67
2017-06-11T16:07:24.409Z,4.17
2017-06-11T16:09:51.456Z,3.30
2017-06-11T16:12:17.756Z,4.90
2017-06-11T16:14:44.092Z,5.87
2017-06-11T16:17:10.412Z,4.10
2017-06-11T16:19:36.684Z,3.90
2017-06-11T16:22:04.076Z,4.83
2017-06-11T16:24:30.377Z,4.33
2017-06-11T16:26:56.749Z,3.97
2017-06-11T16:29:24.165Z,3.97
2017-06-11T16:31:50.982Z,5.43
2017-06-11T16:34:18.003Z,4.00
2017-06-11T16:36:45.025Z,4.47
2017-06-11T16:39:11.371Z,7.03
2017-06-11T16:41:38.800Z,5.63
2017-06-11T16:44:06.540Z,38.77
2017-06-11T16:46:32.848Z,5.07
2017-06-11T16:48:59.153Z,5.37
2017-06-11T16:51:26.191Z,41.70
2017-06-11T16:53:52.816Z,12.60
2017-06-11T16:56:19.226Z,26.07
2017-06-11T16:58:45.790Z,12.50
2017-06-11T17:01:12.900Z,5.87
2017-06-11T17:03:39.192Z,5.30
2017-06-11T17:06:05.789Z,6.80
2017-06-11T17:08:32.104Z,6.83
2017-06-11T17:10:58.403Z,7.40
2017-06-11T17:13:24.732Z,5.77
2017-06-11T17:15:51.039Z,5.80
2017-06-11T17:18:18.074Z,5.83
2017-06-11T17:20:45.179Z,8.60
2017-06-11T17:23:12.110Z,11.43
2017-06-11T17:25:38.433Z,8.37
2017-06-11T17:28:04.757Z,5.83
2017-06-11T17:30:31.064Z,4.80
2017-06-11T17:32:57.391Z,10.03
2017-06-11T17:35:23.643Z,6.80
2017-06-11T17:37:49.949Z,5.50
2017-06-11T17:40:16.228Z,5.73
2017-06-11T17:42:43.192Z,7.63
2017-06-11T17:45:09.461Z,6.07
2017-06-11T17:47:35.760Z,6.83
2017-06-11T17:50:02.063Z,7.60
2017-06-11T17:52:28.380Z,7.70
2017-06-11T17:54:55.040Z,6.37
2017-06-11T17:57:22.065Z,6.60
2017-06-11T17:59:48.356Z,6.17
2017-06-11T18:02:14.618Z,5.93
2017-06-11T18:04:40.922Z,6.17
2017-06-11T18:07:07.544Z,5.63
2017-06-11T18:09:33.825Z,6.13
2017-06-11T18:12:00.128Z,5.20
2017-06-11T18:14:26.410Z,5.27
2017-06-11T18:16:52.675Z,6.13
2017-06-11T18:19:19.189Z,5.50
2017-06-11T18:21:45.487Z,6.00
2017-06-11T18:24:11.787Z,5.97
2017-06-11T18:26:38.104Z,7.60
2017-06-11T18:29:04.345Z,5.97
2017-06-11T18:31:30.636Z,6.10
2017-06-11T18:33:56.876Z,5.67
2017-06-11T18:36:23.135Z,6.10
2017-06-11T18:38:50.107Z,6.30
2017-06-11T18:41:16.468Z,5.90
2017-06-11T18:43:43.200Z,6.00
2017-06-11T18:46:09.528Z,9.00
2017-06-11T18:48:35.812Z,6.10
2017-06-11T18:51:02.305Z,6.93
2017-06-11T18:53:28.592Z,5.70
2017-06-11T18:55:54.923Z,10.10
2017-06-11T18:58:21.208Z,5.77
2017-06-11T19:00:47.476Z,7.80
2017-06-11T19:03:13.791Z,6.17
2017-06-11T19:05:40.548Z,6.10
2017-06-11T19:08:07.332Z,6.00
2017-06-11T19:10:33.636Z,5.70
2017-06-11T19:12:59.926Z,7.30
2017-06-11T19:15:26.287Z,5.83
2017-06-11T19:17:53.955Z,5.73
2017-06-11T19:20:20.327Z,6.10
2017-06-11T19:22:46.574Z,5.60
2017-06-11T19:25:12.876Z,5.90
2017-06-11T19:27:39.137Z,6.67
2017-06-11T19:30:06.112Z,6.93
2017-06-11T19:32:32.426Z,6.73
2017-06-11T19:34:58.754Z,5.60
2017-06-11T19:37:25.108Z,6.47
2017-06-11T19:39:52.182Z,5.70
2017-06-11T19:42:18.967Z,5.87
2017-06-11T19:44:45.303Z,5.80
2017-06-11T19:47:11.676Z,6.30
2017-06-11T19:49:37.996Z,5.50
2017-06-11T19:52:04.348Z,5.70
2017-06-11T19:54:30.789Z,6.27
2017-06-11T19:56:57.177Z,6.60
2017-06-11T19:59:24.214Z,6.77
2017-06-11T20:01:50.586Z,6.40
2017-06-11T20:04:17.839Z,6.10
2017-06-11T20:06:44.418Z,6.10
2017-06-11T20:09:10.796Z,5.70
2017-06-11T20:11:37.119Z,5.67
2017-06-11T20:14:03.483Z,6.07
2017-06-11T20:16:29.843Z,5.73
2017-06-11T20:18:56.472Z,6.10
2017-06-11T20:21:22.844Z,5.40
2017-06-11T20:23:49.188Z,6.03
2017-06-11T20:26:15.468Z,5.97
2017-06-11T20:28:41.728Z,5.60
2017-06-11T20:31:08.169Z,6.60
2017-06-11T20:33:34.431Z,6.23
2017-06-11T20:36:00.700Z,7.07
2017-06-11T20:38:27.794Z,7.20
2017-06-11T20:40:54.053Z,7.40
2017-06-11T20:43:20.375Z,6.80
2017-06-11T20:45:46.735Z,6.70
2017-06-11T20:48:13.084Z,8.20
2017-06-11T20:50:40.189Z,7.30
2017-06-11T20:53:07.247Z,7.67
2017-06-11T20:55:33.817Z,6.30
2017-06-11T20:58:00.099Z,6.47
2017-06-11T21:00:26.398Z,8.30
2017-06-11T21:02:52.664Z,6.70
2017-06-11T21:05:19.684Z,5.90
2017-06-11T21:07:46.011Z,5.53
2017-06-11T21:10:12.296Z,5.67
2017-06-11T21:12:38.555Z,6.00
2017-06-11T21:15:04.811Z,5.70
2017-06-11T21:17:31.066Z,5.67
2017-06-11T21:19:57.716Z,6.07
2017-06-11T21:22:23.960Z,5.30
2017-06-11T21:24:50.224Z,4.83
2017-06-11T21:27:16.509Z,5.20
2017-06-11T21:29:42.753Z,6.13
2017-06-11T21:32:09.288Z,5.13
2017-06-11T21:34:36.197Z,5.30
2017-06-11T21:37:02.463Z,5.70
2017-06-11T21:39:28.757Z,6.27
2017-06-11T21:41:55.037Z,6.40
2017-06-11T21:44:21.312Z,5.70
2017-06-11T21:46:47.567Z,6.63
2017-06-11T21:49:13.847Z,6.10
2017-06-11T21:51:40.857Z,6.50
2017-06-11T21:54:07.131Z,6.30
2017-06-11T21:56:34.119Z,6.90
2017-06-11T21:59:00.416Z,6.40
2017-06-11T22:01:26.672Z,7.17
2017-06-11T22:03:52.940Z,7.97
2017-06-11T22:06:19.689Z,7.43
2017-06-11T22:08:47.120Z,7.27
2017-06-11T22:11:13.388Z,7.20
2017-06-11T22:13:39.653Z,7.47
2017-06-11T22:16:05.895Z,7.40
2017-06-11T22:18:32.153Z,8.10
2017-06-11T22:20:58.763Z,11.67
2017-06-11T22:23:25.067Z,8.33
2017-06-11T22:25:51.340Z,7.77
2017-06-11T22:28:17.624Z,7.67
2017-06-11T22:30:43.897Z,8.20
2017-06-11T22:33:10.131Z,8.30
2017-06-11T22:35:36.684Z,8.03
2017-06-11T22:38:03.704Z,8.70
2017-06-11T22:40:29.964Z,8.90
2017-06-11T22:42:56.945Z,8.80
2017-06-11T22:45:23.180Z,9.20
2017-06-11T22:47:49.444Z,9.77
2017-06-11T22:50:15.749Z,8.97
2017-06-11T22:52:42.017Z,9.20
2017-06-11T22:55:08.256Z,9.83
2017-06-11T22:57:34.551Z,9.93
2017-06-11T23:00:01.084Z,10.10
2017-06-11T23:02:27.344Z,10.63
2017-06-11T23:04:53.635Z,8.97
2017-06-11T23:07:19.978Z,10.07
2017-06-11T23:09:46.227Z,10.83
2017-06-11T23:12:12.847Z,10.20
2017-06-11T23:14:39.114Z,11.60
2017-06-11T23:17:05.396Z,10.57
2017-06-11T23:19:31.680Z,10.97
2017-06-11T23:21:57.920Z,11.23
2017-06-11T23:24:24.993Z,10.60
2017-06-11T23:26:51.276Z,10.87
2017-06-11T23:29:17.539Z,10.77
2017-06-11T23:31:44.528Z,11.07
2017-06-11T23:34:10.781Z,11.67
2017-06-11T23:36:38.210Z,11.67
2017-06-11T23:39:04.476Z,10.87
2017-06-11T23:41:30.741Z,11.30
2017-06-11T23:43:57.094Z,11.63
2017-06-11T23:46:23.339Z,12.90
2017-06-11T23:48:49.767Z,12.20
2017-06-11T23:51:16.055Z,12.30
2017-06-11T23:53:42.332Z,12.27
2017-06-11T23:56:08.599Z,12.93
2017-06-11T23:58:35.571Z,13.60
